createdAt,value
2019-03-28T00:02:00.144Z,99.90
2019-03-28T00:04:29.446Z,99.90
2019-03-28T00:06:58.732Z,99.90
2019-03-28T00:09:28.125Z,99.90
2019-03-28T00:11:57.929Z,99.90
2019-03-28T00:14:27.497Z,99.90
2019-03-28T00:16:57.296Z,99.90
2019-03-28T00:19:26.662Z,99.90
2019-03-28T00:21:56.210Z,99.90
2019-03-28T00:24:28.949Z,99.90
2019-03-28T00:26:58.316Z,99.90
2019-03-28T00:29:28.396Z,99.90
2019-03-28T00:31:57.772Z,99.90
2019-03-28T00:34:27.340Z,99.90
2019-03-28T00:36:56.912Z,99.90
2019-03-28T00:39:26.312Z,99.90
2019-03-28T00:41:55.657Z,99.90
2019-03-28T00:44:24.957Z,99.90
2019-03-28T00:46:54.497Z,99.90
2019-03-28T00:49:23.813Z,99.90
2019-03-28T00:51:53.202Z,99.90
2019-03-28T00:54:22.869Z,99.90
2019-03-28T00:56:52.161Z,99.90
2019-03-28T00:59:21.458Z,99.90
2019-03-28T01:01:50.794Z,99.90
2019-03-28T01:04:20.108Z,99.90
2019-03-28T01:06:49.412Z,99.90
2019-03-28T01:09:18.793Z,99.90
2019-03-28T01:11:48.091Z,99.90
2019-03-28T01:14:17.485Z,99.90
2019-03-28T01:16:46.799Z,99.90
2019-03-28T01:19:16.342Z,99.90
2019-03-28T01:21:45.648Z,99.90
2019-03-28T01:24:15.246Z,99.90
2019-03-28T01:26:56.565Z,99.90
2019-03-28T01:29:15.744Z,99.90
2019-03-28T01:31:45.057Z,99.90
2019-03-28T01:34:14.609Z,99.90
2019-03-28T01:36:44.232Z,99.90
2019-03-28T01:39:13.593Z,99.90
2019-03-28T01:41:42.929Z,99.90
2019-03-28T01:44:12.300Z,99.90
2019-03-28T01:46:41.601Z,99.90
2019-03-28T01:49:10.970Z,99.90
2019-03-28T01:51:40.272Z,99.90
2019-03-28T01:54:09.557Z,99.90
2019-03-28T01:56:38.948Z,99.90
2019-03-28T01:59:08.296Z,99.90
2019-03-28T02:01:37.627Z,99.90
2019-03-28T02:04:06.914Z,99.90
2019-03-28T02:06:36.284Z,99.90
2019-03-28T02:09:06.729Z,99.90
2019-03-28T02:11:36.043Z,99.90
2019-03-28T02:14:05.535Z,99.90
2019-03-28T02:16:35.350Z,99.90
2019-03-28T02:19:04.753Z,99.90
2019-03-28T02:21:34.398Z,99.90
2019-03-28T02:24:04.064Z,99.90
2019-03-28T02:26:34.189Z,99.90
2019-03-28T02:29:03.953Z,99.90
2019-03-28T02:31:33.306Z,99.90
2019-03-28T02:34:02.625Z,99.90
2019-03-28T02:36:32.031Z,99.90
2019-03-28T02:39:01.345Z,99.90
2019-03-28T02:41:30.669Z,99.90
2019-03-28T02:44:00.248Z,99.90
2019-03-28T02:46:29.592Z,99.90
2019-03-28T02:48:59.156Z,99.90
2019-03-28T02:51:29.600Z,99.90
2019-03-28T02:53:59.315Z,99.90
2019-03-28T02:56:28.631Z,99.90
2019-03-28T02:58:58.022Z,99.90
2019-03-28T03:01:30.312Z,99.90
2019-03-28T03:03:58.788Z,99.90
2019-03-28T03:06:28.192Z,99.90
2019-03-28T03:08:57.519Z,99.90
2019-03-28T03:11:27.269Z,99.90
2019-03-28T03:13:56.818Z,99.90
2019-03-28T03:16:26.390Z,99.90
2019-03-28T03:18:55.709Z,99.90
2019-03-28T03:21:25.109Z,99.90
2019-03-28T03:23:54.684Z,99.90
2019-03-28T03:26:24.075Z,99.90
2019-03-28T03:28:53.665Z,99.90
2019-03-28T03:31:24.872Z,99.90
2019-03-28T03:33:54.175Z,99.90
2019-03-28T03:36:23.528Z,99.90
2019-03-28T03:38:52.853Z,99.90
2019-03-28T03:41:22.251Z,99.90
2019-03-28T03:43:51.648Z,99.90
2019-03-28T03:46:21.048Z,99.90
2019-03-28T03:48:50.451Z,99.90
2019-03-28T03:51:19.778Z,99.90
2019-03-28T03:53:49.110Z,99.90
2019-03-28T03:56:18.430Z,99.90
2019-03-28T03:58:47.746Z,99.90
2019-03-28T04:01:17.144Z,99.90
2019-03-28T04:03:46.504Z,99.90
2019-03-28T04:06:15.828Z,99.90
2019-03-28T04:08:45.149Z,99.90
2019-03-28T04:11:14.776Z,99.90
2019-03-28T04:13:44.106Z,99.90
2019-03-28T04:16:13.491Z,99.90
2019-03-28T04:18:43.045Z,99.90
2019-03-28T04:21:12.377Z,99.90
2019-03-28T04:23:41.681Z,99.90
2019-03-28T04:26:11.020Z,99.90
2019-03-28T04:28:40.468Z,99.90
2019-03-28T04:31:09.778Z,99.90
2019-03-28T04:33:39.100Z,99.90
2019-03-28T04:36:08.415Z,99.90
2019-03-28T04:38:38.022Z,99.90
2019-03-28T04:41:07.344Z,99.90
2019-03-28T04:43:36.673Z,99.90
2019-03-28T04:46:05.992Z,99.90
2019-03-28T04:48:35.308Z,99.90
2019-03-28T04:51:04.895Z,99.90
2019-03-28T04:53:34.459Z,99.90
2019-03-28T04:56:04.092Z,99.90
2019-03-28T04:58:43.855Z,99.90
2019-03-28T05:01:04.840Z,99.90
2019-03-28T05:03:34.411Z,99.90
2019-03-28T05:06:03.823Z,99.90
2019-03-28T05:08:33.466Z,99.90
2019-03-28T05:11:02.916Z,99.90
2019-03-28T05:13:32.324Z,99.90
2019-03-28T05:16:01.671Z,99.90
2019-03-28T05:18:30.984Z,99.90
2019-03-28T05:21:00.299Z,99.90
2019-03-28T05:23:29.624Z,99.90
2019-03-28T05:25:58.945Z,99.90
2019-03-28T05:28:28.296Z,99.90
2019-03-28T05:30:57.626Z,99.90
2019-03-28T05:33:26.970Z,99.90
2019-03-28T05:35:56.541Z,99.90
2019-03-28T05:38:25.944Z,99.90
2019-03-28T05:40:55.523Z,99.90
2019-03-28T05:43:24.865Z,99.90
2019-03-28T05:45:54.174Z,99.90
2019-03-28T05:48:23.804Z,99.90
2019-03-28T05:50:53.439Z,99.90
2019-03-28T05:53:22.993Z,99.90
2019-03-28T05:55:52.313Z,99.90
2019-03-28T05:58:21.727Z,99.90
2019-03-28T06:00:51.463Z,99.90
2019-03-28T06:03:20.852Z,99.90
2019-03-28T06:05:50.429Z,99.90
2019-03-28T06:08:19.764Z,99.90
2019-03-28T06:10:49.369Z,99.90
2019-03-28T06:13:19.010Z,99.90
2019-03-28T06:15:48.344Z,99.90
2019-03-28T06:18:17.919Z,99.90
2019-03-28T06:20:47.232Z,99.90
2019-03-28T06:23:16.816Z,99.90
2019-03-28T06:25:46.213Z,99.90
2019-03-28T06:28:15.541Z,99.90
2019-03-28T06:30:45.113Z,99.90
2019-03-28T06:33:14.451Z,99.90
2019-03-28T06:35:44.102Z,99.60
2019-03-28T06:38:13.428Z,98.50
2019-03-28T06:40:42.825Z,97.80
2019-03-28T06:43:12.463Z,98.00
2019-03-28T06:45:41.891Z,97.90
2019-03-28T06:48:11.288Z,97.30
2019-03-28T06:50:40.659Z,97.10
2019-03-28T06:53:10.211Z,96.40
2019-03-28T06:55:39.772Z,96.80
2019-03-28T06:58:09.106Z,97.00
2019-03-28T07:00:38.773Z,96.30
2019-03-28T07:03:08.425Z,95.80
2019-03-28T07:05:38.041Z,95.70
2019-03-28T07:08:07.608Z,95.50
2019-03-28T07:10:37.220Z,94.80
2019-03-28T07:13:06.639Z,94.20
2019-03-28T07:15:36.867Z,93.30
2019-03-28T07:18:06.696Z,92.80
2019-03-28T07:20:36.028Z,92.60
2019-03-28T07:23:05.369Z,92.30
2019-03-28T07:25:34.716Z,91.70
2019-03-28T07:28:06.314Z,91.20
2019-03-28T07:30:35.347Z,91.20
2019-03-28T07:33:04.805Z,91.50
2019-03-28T07:35:34.313Z,91.30
2019-03-28T07:38:03.981Z,91.10
2019-03-28T07:40:33.647Z,90.60
2019-03-28T07:43:03.359Z,91.30
2019-03-28T07:45:34.463Z,90.20
2019-03-28T07:48:04.255Z,90.20
2019-03-28T07:50:33.947Z,89.40
2019-03-28T07:53:03.323Z,90.00
2019-03-28T07:55:32.737Z,87.60
2019-03-28T07:58:02.061Z,85.00
2019-03-28T08:00:31.729Z,86.20
2019-03-28T08:03:01.092Z,85.50
2019-03-28T08:05:30.509Z,83.60
2019-03-28T08:07:59.912Z,85.00
2019-03-28T08:10:29.331Z,84.20
2019-03-28T08:12:58.721Z,83.20
2019-03-28T08:15:28.072Z,82.90
2019-03-28T08:17:58.485Z,82.60
2019-03-28T08:20:27.981Z,81.90
2019-03-28T08:22:57.560Z,81.10
2019-03-28T08:25:26.884Z,79.20
2019-03-28T08:27:57.707Z,77.60
2019-03-28T08:30:45.594Z,78.40
2019-03-28T08:33:14.974Z,77.50
2019-03-28T08:35:44.385Z,74.10
2019-03-28T08:38:14.369Z,74.30
2019-03-28T08:40:44.347Z,74.00
2019-03-28T08:43:14.806Z,73.70
2019-03-28T08:45:44.446Z,71.70
2019-03-28T08:48:13.855Z,73.10
2019-03-28T08:50:43.282Z,71.90
2019-03-28T08:53:12.721Z,70.80
2019-03-28T08:55:42.297Z,70.60
2019-03-28T08:58:11.644Z,70.00
2019-03-28T09:00:51.800Z,66.70
2019-03-28T09:03:12.218Z,67.60
2019-03-28T09:05:42.157Z,67.50
2019-03-28T09:08:11.833Z,67.40
2019-03-28T09:10:41.278Z,66.50
2019-03-28T09:13:28.472Z,67.70
2019-03-28T09:15:58.023Z,66.20
2019-03-28T09:18:27.390Z,65.70
2019-03-28T09:20:56.940Z,64.90
2019-03-28T09:23:26.327Z,64.80
2019-03-28T09:25:55.789Z,64.00
2019-03-28T09:28:25.101Z,64.30
2019-03-28T09:30:54.684Z,65.10
2019-03-28T09:33:25.985Z,63.30
2019-03-28T09:35:55.344Z,62.60
2019-03-28T09:38:24.825Z,61.80
2019-03-28T09:40:54.341Z,62.40
2019-03-28T09:43:23.790Z,61.00
2019-03-28T09:45:53.550Z,59.60
2019-03-28T09:48:22.965Z,60.80
2019-03-28T09:50:52.793Z,60.40
2019-03-28T09:53:22.204Z,60.30
2019-03-28T09:55:51.720Z,59.40
2019-03-28T09:58:21.548Z,58.90
2019-03-28T10:01:01.973Z,57.70
2019-03-28T10:03:22.601Z,58.40
2019-03-28T10:05:52.292Z,59.00
2019-03-28T10:08:21.634Z,58.40
2019-03-28T10:10:51.277Z,59.20
2019-03-28T10:13:20.607Z,57.90
2019-03-28T10:15:49.937Z,57.50
2019-03-28T10:18:20.468Z,58.30
2019-03-28T10:20:50.027Z,58.20
2019-03-28T10:23:19.441Z,55.30
2019-03-28T10:25:48.784Z,56.10
2019-03-28T10:28:18.193Z,56.30
2019-03-28T10:30:47.617Z,55.30
2019-03-28T10:33:17.120Z,54.50
2019-03-28T10:35:46.602Z,55.20
2019-03-28T10:38:15.956Z,54.90
2019-03-28T10:40:45.399Z,55.70
2019-03-28T10:43:14.837Z,56.30
2019-03-28T10:45:44.296Z,55.20
2019-03-28T10:48:13.816Z,55.00
2019-03-28T10:50:45.834Z,55.50
2019-03-28T10:53:14.509Z,53.70
2019-03-28T10:55:43.885Z,53.80
2019-03-28T10:58:18.651Z,54.30
2019-03-28T11:00:44.411Z,54.00
2019-03-28T11:03:14.133Z,54.30
2019-03-28T11:05:43.582Z,54.70
2019-03-28T11:08:13.102Z,55.00
2019-03-28T11:10:42.480Z,54.10
2019-03-28T11:13:11.950Z,53.80
2019-03-28T11:15:41.384Z,54.10
2019-03-28T11:18:10.846Z,53.80
2019-03-28T11:20:40.709Z,53.50
2019-03-28T11:23:10.453Z,53.80
2019-03-28T11:25:39.883Z,53.70
2019-03-28T11:28:09.254Z,52.30
2019-03-28T11:30:38.600Z,53.60
2019-03-28T11:33:08.134Z,50.50
2019-03-28T11:35:37.773Z,51.10
2019-03-28T11:38:09.577Z,52.00
2019-03-28T11:40:38.925Z,51.00
2019-03-28T11:43:09.964Z,51.00
2019-03-28T11:45:39.431Z,50.90
2019-03-28T11:48:08.875Z,52.00
2019-03-28T11:50:38.496Z,50.80
2019-03-28T11:53:07.961Z,51.30
2019-03-28T11:55:37.409Z,52.00
2019-03-28T11:58:06.957Z,50.20
2019-03-28T12:00:36.321Z,49.90
2019-03-28T12:03:05.971Z,50.30
2019-03-28T12:05:35.585Z,50.40
2019-03-28T12:08:05.112Z,50.40
2019-03-28T12:10:34.614Z,52.10
2019-03-28T12:13:04.157Z,52.70
2019-03-28T12:15:33.786Z,52.30
2019-03-28T12:18:03.176Z,51.00
2019-03-28T12:20:32.626Z,52.40
2019-03-28T12:23:02.345Z,52.20
2019-03-28T12:25:31.708Z,52.00
2019-03-28T12:28:01.163Z,52.00
2019-03-28T12:30:30.547Z,53.00
2019-03-28T12:32:59.910Z,52.50
2019-03-28T12:35:29.273Z,53.40
2019-03-28T12:37:58.658Z,53.10
2019-03-28T12:40:28.276Z,51.60
2019-03-28T12:42:58.035Z,51.00
2019-03-28T12:45:27.746Z,53.10
2019-03-28T12:47:57.144Z,52.50
2019-03-28T12:50:26.590Z,51.40
2019-03-28T12:52:58.342Z,52.60
2019-03-28T12:55:27.416Z,52.20
2019-03-28T12:57:57.074Z,52.90
2019-03-28T13:00:36.837Z,53.40
2019-03-28T13:03:06.724Z,53.20
2019-03-28T13:05:42.207Z,53.70
2019-03-28T13:08:19.458Z,53.90
2019-03-28T13:10:48.812Z,53.20
2019-03-28T13:13:18.201Z,52.80
2019-03-28T13:15:47.750Z,53.40
2019-03-28T13:18:17.109Z,53.90
2019-03-28T13:20:46.496Z,53.10
2019-03-28T13:23:15.871Z,54.00
2019-03-28T13:25:45.371Z,54.90
2019-03-28T13:28:14.744Z,54.20
2019-03-28T13:30:44.132Z,54.30
2019-03-28T13:33:13.499Z,54.40
2019-03-28T13:35:43.197Z,54.30
2019-03-28T13:38:12.654Z,53.70
2019-03-28T13:40:42.275Z,54.00
2019-03-28T13:43:11.719Z,54.40
2019-03-28T13:45:41.400Z,53.40
2019-03-28T13:48:13.700Z,53.60
2019-03-28T13:50:41.915Z,54.30
2019-03-28T13:53:11.292Z,55.10
2019-03-28T13:55:40.749Z,55.00
2019-03-28T13:58:10.411Z,54.00
2019-03-28T14:00:40.047Z,54.10
2019-03-28T14:03:09.427Z,53.20
2019-03-28T14:05:38.820Z,52.90
2019-03-28T14:08:08.183Z,53.10
2019-03-28T14:10:37.660Z,53.70
2019-03-28T14:13:07.951Z,54.00
2019-03-28T14:15:37.322Z,53.50
2019-03-28T14:18:10.778Z,54.00
2019-03-28T14:20:40.218Z,53.80
2019-03-28T14:23:09.652Z,53.90
2019-03-28T14:25:39.590Z,53.80
2019-03-28T14:28:08.971Z,54.70
2019-03-28T14:30:39.601Z,54.80
2019-03-28T14:33:11.524Z,53.90
2019-03-28T14:35:40.405Z,54.60
2019-03-28T14:38:09.789Z,54.40
2019-03-28T14:40:39.273Z,54.90
2019-03-28T14:43:10.679Z,55.60
2019-03-28T14:45:39.918Z,55.80
2019-03-28T14:48:09.562Z,55.60
2019-03-28T14:50:42.198Z,55.70
2019-03-28T14:53:11.691Z,56.30
2019-03-28T14:55:41.830Z,56.20
2019-03-28T14:58:11.189Z,56.80
2019-03-28T15:00:48.424Z,56.90
2019-03-28T15:03:26.322Z,56.90
2019-03-28T15:05:49.520Z,56.70
2019-03-28T15:08:19.442Z,56.60
2019-03-28T15:10:49.513Z,57.00
2019-03-28T15:13:18.876Z,57.30
2019-03-28T15:15:48.450Z,57.50
2019-03-28T15:18:17.916Z,57.50
2019-03-28T15:20:47.668Z,58.00
2019-03-28T15:23:17.422Z,58.20
2019-03-28T15:25:46.977Z,58.20
2019-03-28T15:28:16.755Z,58.20
2019-03-28T15:30:46.803Z,57.30
2019-03-28T15:33:16.572Z,57.50
2019-03-28T15:35:46.348Z,56.50
2019-03-28T15:38:16.043Z,57.10
2019-03-28T15:40:45.621Z,57.90
2019-03-28T15:43:15.103Z,58.10
2019-03-28T15:45:44.751Z,58.40
2019-03-28T15:48:14.519Z,58.60
2019-03-28T15:50:44.123Z,59.00
2019-03-28T15:53:13.703Z,59.20
2019-03-28T15:55:43.501Z,59.10
2019-03-28T15:58:23.284Z,59.60
2019-03-28T16:00:44.153Z,60.00
2019-03-28T16:03:13.864Z,60.10
2019-03-28T16:05:57.174Z,59.90
2019-03-28T16:08:15.074Z,60.50
2019-03-28T16:10:44.735Z,60.70
2019-03-28T16:13:14.102Z,60.10
2019-03-28T16:15:43.646Z,60.30
2019-03-28T16:18:13.756Z,60.60
2019-03-28T16:20:43.368Z,60.80
2019-03-28T16:23:12.855Z,61.00
2019-03-28T16:25:42.230Z,61.40
2019-03-28T16:28:11.701Z,61.50
2019-03-28T16:30:41.341Z,61.80
2019-03-28T16:33:10.873Z,61.80
2019-03-28T16:35:40.320Z,61.90
2019-03-28T16:38:09.740Z,61.90
2019-03-28T16:40:39.282Z,62.30
2019-03-28T16:43:08.646Z,62.20
2019-03-28T16:45:38.424Z,62.20
2019-03-28T16:48:07.949Z,62.70
2019-03-28T16:50:37.678Z,62.60
2019-03-28T16:53:07.121Z,62.70
2019-03-28T16:55:36.507Z,63.10
2019-03-28T16:58:06.089Z,63.20
2019-03-28T17:00:39.406Z,63.20
2019-03-28T17:03:09.590Z,63.20
2019-03-28T17:05:39.225Z,63.90
2019-03-28T17:08:09.221Z,64.30
2019-03-28T17:10:49.441Z,64.80
2019-03-28T17:13:19.424Z,65.40
2019-03-28T17:15:49.035Z,66.00
2019-03-28T17:18:19.196Z,66.70
2019-03-28T17:20:48.842Z,67.00
2019-03-28T17:23:18.514Z,67.20
2019-03-28T17:25:48.145Z,67.40
2019-03-28T17:28:17.936Z,67.40
2019-03-28T17:30:47.415Z,67.20
2019-03-28T17:33:17.924Z,67.60
2019-03-28T17:35:47.903Z,68.30
2019-03-28T17:38:17.507Z,67.80
2019-03-28T17:40:47.513Z,68.20
2019-03-28T17:43:16.967Z,68.50
2019-03-28T17:45:46.485Z,68.80
2019-03-28T17:48:16.272Z,69.00
2019-03-28T17:50:45.711Z,69.30
2019-03-28T17:53:15.099Z,69.70
2019-03-28T17:55:44.530Z,69.90
2019-03-28T17:58:14.012Z,70.10
2019-03-28T18:00:45.420Z,70.30
2019-03-28T18:03:14.877Z,70.40
2019-03-28T18:05:57.136Z,70.40
2019-03-28T18:08:15.728Z,70.70
2019-03-28T18:10:45.268Z,71.30
2019-03-28T18:13:14.712Z,71.40
2019-03-28T18:15:44.739Z,71.50
2019-03-28T18:18:14.266Z,71.80
2019-03-28T18:20:43.992Z,72.00
2019-03-28T18:23:13.442Z,72.30
2019-03-28T18:25:43.222Z,72.60
2019-03-28T18:28:12.761Z,73.60
2019-03-28T18:30:42.262Z,73.30
2019-03-28T18:33:11.730Z,73.70
2019-03-28T18:35:41.317Z,74.00
2019-03-28T18:38:11.133Z,74.40
2019-03-28T18:40:40.809Z,74.50
2019-03-28T18:43:10.243Z,74.60
2019-03-28T18:45:39.755Z,75.10
2019-03-28T18:48:10.440Z,75.30
2019-03-28T18:50:41.208Z,75.70
2019-03-28T18:53:10.883Z,75.80
2019-03-28T18:55:40.258Z,76.00
2019-03-28T18:58:09.623Z,76.20
2019-03-28T19:00:39.127Z,76.80
2019-03-28T19:03:08.535Z,77.20
2019-03-28T19:05:37.899Z,77.50
2019-03-28T19:08:07.267Z,77.80
2019-03-28T19:10:37.733Z,78.20
2019-03-28T19:13:07.427Z,78.60
2019-03-28T19:15:36.810Z,79.10
2019-03-28T19:18:06.613Z,79.70
2019-03-28T19:20:36.235Z,80.20
2019-03-28T19:23:07.390Z,80.60
2019-03-28T19:25:37.014Z,80.70
2019-03-28T19:28:07.837Z,81.30
2019-03-28T19:30:38.719Z,81.60
2019-03-28T19:33:08.427Z,81.90
2019-03-28T19:35:39.200Z,82.20
2019-03-28T19:38:09.353Z,82.50
2019-03-28T19:40:38.965Z,82.80
2019-03-28T19:43:19.696Z,83.10
2019-03-28T19:45:39.602Z,83.40
2019-03-28T19:48:09.160Z,83.50
2019-03-28T19:50:38.749Z,83.80
2019-03-28T19:53:11.600Z,84.00
2019-03-28T19:55:40.126Z,84.30
2019-03-28T19:58:13.038Z,84.20
2019-03-28T20:00:41.071Z,84.80
2019-03-28T20:03:10.547Z,84.70
2019-03-28T20:05:47.412Z,85.20
2019-03-28T20:08:15.904Z,85.60
2019-03-28T20:10:42.777Z,85.70
2019-03-28T20:13:12.221Z,85.70
2019-03-28T20:15:41.663Z,85.80
2019-03-28T20:18:11.097Z,85.90
2019-03-28T20:20:40.621Z,85.90
2019-03-28T20:23:10.056Z,86.20
2019-03-28T20:25:42.574Z,86.40
2019-03-28T20:28:10.584Z,86.20
2019-03-28T20:30:40.109Z,86.50
2019-03-28T20:33:09.820Z,86.70
2019-03-28T20:35:39.271Z,87.00
2019-03-28T20:38:08.789Z,87.00
2019-03-28T20:40:38.263Z,87.00
2019-03-28T20:43:08.528Z,87.50
2019-03-28T20:45:38.612Z,87.70
2019-03-28T20:48:08.389Z,88.00
2019-03-28T20:50:38.148Z,88.10
2019-03-28T20:53:07.536Z,88.40
2019-03-28T20:55:37.188Z,88.70
2019-03-28T20:58:06.617Z,88.80
2019-03-28T21:00:41.634Z,89.00
2019-03-28T21:03:11.228Z,89.20
2019-03-28T21:05:40.744Z,89.40
2019-03-28T21:08:10.179Z,89.50
2019-03-28T21:10:39.963Z,89.80
2019-03-28T21:13:09.849Z,90.10
2019-03-28T21:15:39.431Z,90.30
2019-03-28T21:18:09.194Z,90.40
2019-03-28T21:20:38.893Z,90.50
2019-03-28T21:23:08.245Z,90.70
2019-03-28T21:25:37.577Z,90.70
2019-03-28T21:28:07.042Z,90.60
2019-03-28T21:30:46.706Z,90.80
2019-03-28T21:33:07.532Z,90.90
2019-03-28T21:35:37.240Z,91.00
2019-03-28T21:38:06.723Z,91.20
2019-03-28T21:40:36.374Z,91.20
2019-03-28T21:43:05.742Z,91.30
2019-03-28T21:45:35.186Z,91.40
2019-03-28T21:48:04.800Z,91.60
2019-03-28T21:50:34.289Z,91.60
2019-03-28T21:53:03.688Z,91.80
2019-03-28T21:55:33.019Z,91.90
2019-03-28T21:58:02.392Z,92.00
2019-03-28T22:00:31.797Z,92.00
2019-03-28T22:03:01.144Z,92.00
2019-03-28T22:05:30.899Z,92.20
2019-03-28T22:08:00.373Z,92.40
2019-03-28T22:10:29.709Z,92.50
2019-03-28T22:12:59.062Z,92.60
2019-03-28T22:15:28.701Z,92.70
2019-03-28T22:17:58.015Z,92.80
2019-03-28T22:20:27.624Z,93.00
2019-03-28T22:22:57.261Z,93.20
2019-03-28T22:25:26.808Z,93.30
2019-03-28T22:27:56.214Z,93.50
2019-03-28T22:30:25.556Z,93.70
2019-03-28T22:32:54.981Z,93.90
2019-03-28T22:35:24.408Z,94.10
2019-03-28T22:37:54.755Z,94.20
2019-03-28T22:40:24.244Z,94.50
2019-03-28T22:42:53.636Z,94.60
2019-03-28T22:45:23.220Z,94.80
2019-03-28T22:47:52.639Z,95.00
2019-03-28T22:50:22.215Z,95.20
2019-03-28T22:52:51.978Z,95.40
2019-03-28T22:55:21.443Z,95.70
2019-03-28T22:57:53.927Z,96.00
2019-03-28T23:00:24.211Z,96.20
2019-03-28T23:02:54.867Z,96.40
2019-03-28T23:05:24.617Z,96.70
2019-03-28T23:07:54.197Z,97.40
2019-03-28T23:10:23.539Z,97.60
2019-03-28T23:12:52.855Z,97.90
2019-03-28T23:15:22.291Z,98.00
2019-03-28T23:17:51.659Z,98.10
2019-03-28T23:20:20.989Z,98.30
2019-03-28T23:22:50.561Z,98.60
2019-03-28T23:25:20.096Z,98.80
2019-03-28T23:27:49.422Z,99.10
2019-03-28T23:30:18.923Z,99.20
2019-03-28T23:32:48.272Z,99.40
2019-03-28T23:35:17.860Z,99.50
2019-03-28T23:37:47.556Z,99.70
2019-03-28T23:40:17.062Z,99.80
2019-03-28T23:42:46.461Z,99.90
2019-03-28T23:45:16.413Z,99.90
2019-03-28T23:47:46.139Z,99.90
2019-03-28T23:50:15.634Z,99.90
2019-03-28T23:52:45.606Z,99.90
2019-03-28T23:55:15.280Z,99.90
2019-03-28T23:57:44.909Z,99.90
